createdAt,value
2017-12-08T00:01:53.275Z,2.57
2017-12-08T00:04:21.616Z,6.77
2017-12-08T00:06:49.969Z,4.60
2017-12-08T00:09:18.307Z,9.87
2017-12-08T00:11:46.638Z,8.67
2017-12-08T00:14:14.969Z,7.03
2017-12-08T00:16:43.289Z,25.10
2017-12-08T00:19:11.674Z,12.10
2017-12-08T00:21:40.014Z,10.60
2017-12-08T00:24:08.391Z,13.67
2017-12-08T00:26:36.678Z,9.10
2017-12-08T00:29:05.019Z,16.73
2017-12-08T00:31:33.399Z,17.17
2017-12-08T00:34:01.730Z,27.50
2017-12-08T00:36:30.074Z,16.60
2017-12-08T00:41:32.874Z,19.93
2017-12-08T00:44:01.319Z,16.37
2017-12-08T00:46:29.661Z,20.40
2017-12-08T00:48:58.004Z,19.30
2017-12-08T00:51:26.364Z,18.53
2017-12-08T00:53:54.699Z,21.03
2017-12-08T00:56:23.074Z,17.80
2017-12-08T00:58:51.414Z,35.90
2017-12-08T01:01:19.757Z,26.73
2017-12-08T01:03:48.096Z,18.77
2017-12-08T01:06:16.437Z,24.13
2017-12-08T01:08:44.797Z,32.07
2017-12-08T01:11:13.150Z,28.53
2017-12-08T01:13:41.507Z,12.40
2017-12-08T01:16:09.834Z,18.67
2017-12-08T01:18:38.181Z,29.27
2017-12-08T01:21:06.546Z,18.53
2017-12-08T01:23:34.881Z,24.53
2017-12-08T01:26:03.218Z,24.87
2017-12-08T01:28:31.549Z,24.33
2017-12-08T01:30:59.899Z,27.03
2017-12-08T01:33:28.269Z,20.17
2017-12-08T01:35:56.613Z,31.83
2017-12-08T01:38:24.964Z,41.77
2017-12-08T01:40:53.294Z,22.73
2017-12-08T01:43:21.639Z,26.73
2017-12-08T01:45:50.003Z,19.93
2017-12-08T01:48:18.347Z,19.40
2017-12-08T01:50:46.703Z,21.60
2017-12-08T01:53:15.038Z,12.90
2017-12-08T01:55:43.385Z,19.75
2017-12-08T01:58:11.797Z,18.67
2017-12-08T02:00:40.095Z,12.50
2017-12-08T02:03:08.432Z,17.50
2017-12-08T02:05:36.779Z,20.43
2017-12-08T02:08:05.118Z,20.40
2017-12-08T02:10:33.634Z,34.00
2017-12-08T02:13:01.999Z,31.48
2017-12-08T02:15:30.349Z,19.52
2017-12-08T02:17:58.693Z,17.73
2017-12-08T02:20:27.039Z,22.00
2017-12-08T02:22:55.418Z,29.23
2017-12-08T02:25:23.765Z,29.50
2017-12-08T02:27:52.106Z,22.65
2017-12-08T02:30:20.449Z,31.80
2017-12-08T02:32:49.011Z,30.00
2017-12-08T02:35:17.400Z,28.08
2017-12-08T02:37:45.750Z,33.67
2017-12-08T02:40:14.088Z,20.87
2017-12-08T02:42:42.426Z,17.83
2017-12-08T02:45:10.937Z,28.05
2017-12-08T02:47:39.324Z,15.25
2017-12-08T02:50:08.555Z,19.40
2017-12-08T02:52:36.914Z,21.70
2017-12-08T02:55:05.260Z,37.63
2017-12-08T02:57:33.608Z,30.05
2017-12-08T03:00:01.991Z,19.33
2017-12-08T03:02:30.343Z,43.17
2017-12-08T03:04:58.690Z,21.98
2017-12-08T03:07:27.046Z,25.33
2017-12-08T03:09:55.390Z,24.33
2017-12-08T03:12:23.874Z,30.37
2017-12-08T03:14:52.224Z,23.17
2017-12-08T03:17:20.571Z,28.80
2017-12-08T03:19:49.022Z,24.67
2017-12-08T03:22:17.368Z,25.10
2017-12-08T03:24:45.838Z,26.33
2017-12-08T03:27:14.178Z,24.42
2017-12-08T03:29:42.561Z,28.10
2017-12-08T03:32:10.899Z,21.98
2017-12-08T03:34:39.246Z,23.05
2017-12-08T03:37:07.624Z,29.33
2017-12-08T03:39:35.974Z,21.27
2017-12-08T03:42:04.319Z,10.68
2017-12-08T03:44:32.655Z,9.15
2017-12-08T03:47:01.004Z,10.45
2017-12-08T03:49:29.383Z,17.30
2017-12-08T03:51:57.722Z,9.75
2017-12-08T03:54:26.073Z,18.75
2017-12-08T03:56:54.427Z,15.63
2017-12-08T03:59:22.766Z,24.63
2017-12-08T04:01:51.146Z,25.48
2017-12-08T04:04:19.506Z,13.98
2017-12-08T04:06:47.856Z,15.43
2017-12-08T04:09:16.189Z,19.25
2017-12-08T04:11:44.658Z,35.90
2017-12-08T04:14:13.019Z,25.17
2017-12-08T04:16:41.357Z,30.60
2017-12-08T04:19:09.706Z,29.83
2017-12-08T04:21:38.058Z,16.62
2017-12-08T04:24:06.435Z,17.73
2017-12-08T04:26:34.793Z,28.55
2017-12-08T04:29:03.134Z,19.85
2017-12-08T04:31:31.486Z,18.40
2017-12-08T04:33:59.839Z,25.45
2017-12-08T04:36:28.208Z,13.80
2017-12-08T04:38:56.552Z,22.25
2017-12-08T04:41:24.912Z,17.00
2017-12-08T04:43:53.254Z,16.55
2017-12-08T04:46:21.605Z,16.12
2017-12-08T04:48:50.011Z,30.42
2017-12-08T04:51:18.351Z,16.85
2017-12-08T04:53:46.699Z,18.15
2017-12-08T04:56:15.046Z,15.57
2017-12-08T04:58:43.404Z,27.62
2017-12-08T05:01:11.782Z,21.75
2017-12-08T05:03:40.126Z,12.50
2017-12-08T05:06:08.476Z,10.30
2017-12-08T05:08:36.820Z,9.20
2017-12-08T05:11:05.171Z,13.90
2017-12-08T05:13:33.534Z,7.05
2017-12-08T05:16:01.878Z,18.42
2017-12-08T05:18:30.228Z,10.30
2017-12-08T05:20:58.584Z,9.27
2017-12-08T05:23:26.933Z,14.05
2017-12-08T05:25:55.310Z,16.00
2017-12-08T05:28:23.651Z,17.67
2017-12-08T05:30:52.027Z,13.93
2017-12-08T05:33:20.375Z,12.73
2017-12-08T05:35:48.717Z,12.57
2017-12-08T05:38:17.204Z,14.20
2017-12-08T05:40:45.590Z,8.93
2017-12-08T05:43:13.919Z,2.87
2017-12-08T05:45:42.255Z,4.68
2017-12-08T05:48:10.591Z,3.15
2017-12-08T05:50:38.963Z,1.83
2017-12-08T05:53:07.308Z,2.70
2017-12-08T05:55:35.657Z,1.85
2017-12-08T05:58:03.994Z,5.62
2017-12-08T06:00:32.329Z,2.05
2017-12-08T06:03:01.007Z,2.30
2017-12-08T06:05:29.342Z,3.30
2017-12-08T06:07:57.676Z,6.60
2017-12-08T06:10:26.019Z,1.00
2017-12-08T06:12:54.355Z,6.30
2017-12-08T06:15:22.723Z,7.53
2017-12-08T06:17:51.047Z,5.35
2017-12-08T06:20:19.391Z,8.07
2017-12-08T06:22:47.723Z,16.85
2017-12-08T06:25:16.058Z,10.02
2017-12-08T06:27:44.426Z,10.18
2017-12-08T06:30:12.786Z,14.73
2017-12-08T06:32:41.119Z,18.40
2017-12-08T06:35:09.472Z,22.23
2017-12-08T06:37:37.802Z,12.63
2017-12-08T06:40:06.166Z,24.27
2017-12-08T06:42:34.516Z,16.12
2017-12-08T06:45:02.858Z,18.42
2017-12-08T06:47:31.198Z,28.12
2017-12-08T06:49:59.634Z,12.55
2017-12-08T06:52:28.107Z,15.20
2017-12-08T06:54:57.048Z,17.55
2017-12-08T06:57:25.395Z,15.80
2017-12-08T06:59:53.747Z,10.30
2017-12-08T07:02:22.087Z,15.77
2017-12-08T07:04:50.458Z,18.12
2017-12-08T07:07:18.801Z,11.00
2017-12-08T07:09:47.149Z,12.02
2017-12-08T07:12:15.482Z,21.48
2017-12-08T07:14:43.826Z,29.87
2017-12-08T07:17:12.259Z,19.12
2017-12-08T07:19:40.558Z,15.30
2017-12-08T07:22:08.898Z,21.92
2017-12-08T07:24:37.247Z,11.60
2017-12-08T07:27:05.586Z,16.55
2017-12-08T07:29:33.955Z,21.17
2017-12-08T07:32:02.313Z,15.05
2017-12-08T07:34:30.647Z,19.20
2017-12-08T07:36:58.994Z,21.10
2017-12-08T07:39:27.339Z,16.45
2017-12-08T07:41:55.895Z,19.83
2017-12-08T07:44:24.242Z,13.25
2017-12-08T07:46:52.603Z,16.62
2017-12-08T07:49:20.935Z,19.05
2017-12-08T07:51:49.272Z,22.27
2017-12-08T07:54:17.650Z,10.95
2017-12-08T07:56:45.986Z,24.52
2017-12-08T07:59:14.331Z,16.95
2017-12-08T08:01:42.688Z,12.00
2017-12-08T08:04:11.026Z,13.30
2017-12-08T08:06:39.406Z,14.77
2017-12-08T08:09:07.751Z,20.55
2017-12-08T08:11:36.110Z,19.90
2017-12-08T08:14:04.490Z,20.90
2017-12-08T08:16:32.839Z,15.35
2017-12-08T08:19:01.177Z,23.92
2017-12-08T08:21:29.528Z,20.35
2017-12-08T08:23:57.870Z,15.05
2017-12-08T08:26:26.247Z,17.27
2017-12-08T08:28:54.587Z,16.27
2017-12-08T08:31:22.946Z,24.52
2017-12-08T08:33:51.279Z,13.95
2017-12-08T08:36:19.616Z,18.15
2017-12-08T08:38:48.004Z,9.20
2017-12-08T08:41:16.346Z,12.80
2017-12-08T08:43:44.703Z,12.77
2017-12-08T08:46:13.053Z,25.42
2017-12-08T08:48:41.398Z,17.80
2017-12-08T08:51:09.766Z,18.58
2017-12-08T08:53:38.115Z,14.15
2017-12-08T08:56:06.460Z,15.35
2017-12-08T08:58:34.823Z,17.65
2017-12-08T09:01:03.175Z,18.87
2017-12-08T09:03:31.548Z,17.70
2017-12-08T09:05:59.899Z,22.27
2017-12-08T09:08:28.259Z,13.55
2017-12-08T09:10:56.623Z,17.67
2017-12-08T09:13:24.961Z,21.50
2017-12-08T09:15:53.355Z,17.42
2017-12-08T09:18:21.706Z,15.35
2017-12-08T09:20:50.047Z,12.27
2017-12-08T09:23:18.390Z,15.25
2017-12-08T09:25:46.738Z,6.78
2017-12-08T09:28:15.121Z,10.10
2017-12-08T09:30:43.605Z,4.93
2017-12-08T09:33:11.938Z,4.12
2017-12-08T09:35:40.270Z,7.97
2017-12-08T09:38:08.602Z,7.95
2017-12-08T09:40:36.975Z,11.48
2017-12-08T09:43:05.338Z,10.63
2017-12-08T09:45:33.679Z,12.68
2017-12-08T09:48:02.042Z,9.50
2017-12-08T09:50:30.411Z,3.72
2017-12-08T09:52:58.775Z,3.72
2017-12-08T09:55:27.106Z,9.48
2017-12-08T09:57:55.455Z,6.20
2017-12-08T10:00:23.792Z,7.95
2017-12-08T10:02:52.133Z,4.20
2017-12-08T10:05:20.517Z,14.27
2017-12-08T10:07:48.851Z,6.20
2017-12-08T10:10:17.234Z,8.80
2017-12-08T10:12:45.568Z,9.20
2017-12-08T10:15:13.907Z,5.25
2017-12-08T10:17:42.303Z,4.47
2017-12-08T10:20:10.631Z,7.30
2017-12-08T10:22:38.959Z,3.97
2017-12-08T10:25:07.326Z,10.85
2017-12-08T10:27:35.673Z,12.77
2017-12-08T10:30:04.152Z,17.17
2017-12-08T10:32:32.494Z,17.95
2017-12-08T10:35:00.837Z,6.75
2017-12-08T10:37:29.185Z,5.05
2017-12-08T10:39:57.522Z,11.73
2017-12-08T10:42:25.911Z,9.98
2017-12-08T10:44:54.264Z,6.93
2017-12-08T10:47:22.610Z,7.03
2017-12-08T10:49:50.995Z,8.90
2017-12-08T10:52:19.471Z,15.10
2017-12-08T10:54:47.926Z,7.82
2017-12-08T10:57:16.282Z,12.40
2017-12-08T10:59:44.610Z,10.13
2017-12-08T11:02:12.954Z,12.77
2017-12-08T11:04:41.314Z,10.25
2017-12-08T11:07:09.839Z,16.98
2017-12-08T11:09:38.192Z,12.45
2017-12-08T11:12:06.533Z,15.82
2017-12-08T11:14:34.868Z,11.35
2017-12-08T11:17:03.198Z,15.93
2017-12-08T11:19:31.582Z,20.08
2017-12-08T11:21:59.914Z,28.00
2017-12-08T11:24:28.274Z,11.32
2017-12-08T11:26:56.629Z,18.73
2017-12-08T11:29:24.971Z,5.37
2017-12-08T11:31:53.352Z,6.82
2017-12-08T11:34:21.682Z,10.40
2017-12-08T11:36:50.796Z,9.05
2017-12-08T11:39:19.186Z,7.85
2017-12-08T11:41:47.560Z,14.82
2017-12-08T11:44:15.955Z,8.50
2017-12-08T11:46:44.305Z,7.60
2017-12-08T11:49:12.668Z,6.32
2017-12-08T11:51:40.987Z,7.90
2017-12-08T11:54:09.325Z,12.43
2017-12-08T11:56:37.709Z,7.43
2017-12-08T11:59:06.062Z,6.62
2017-12-08T12:01:34.407Z,8.25
2017-12-08T12:04:02.749Z,5.93
2017-12-08T12:06:31.096Z,7.80
2017-12-08T12:08:59.463Z,13.45
2017-12-08T12:11:27.816Z,8.38
2017-12-08T12:13:56.168Z,8.07
2017-12-08T12:16:24.511Z,12.37
2017-12-08T12:18:52.843Z,5.95
2017-12-08T12:21:21.232Z,4.00
2017-12-08T12:23:49.585Z,4.55
2017-12-08T12:26:17.931Z,4.65
2017-12-08T12:28:46.342Z,6.15
2017-12-08T12:31:14.720Z,9.52
2017-12-08T12:33:43.042Z,12.07
2017-12-08T12:36:11.388Z,13.55
2017-12-08T12:38:39.785Z,9.10
2017-12-08T12:41:08.120Z,10.98
2017-12-08T12:43:36.468Z,13.93
2017-12-08T12:46:04.801Z,7.12
2017-12-08T12:48:33.148Z,8.18
2017-12-08T12:51:01.520Z,8.18
2017-12-08T12:53:29.872Z,8.68
2017-12-08T12:55:58.203Z,6.68
2017-12-08T12:58:26.538Z,8.20
2017-12-08T13:00:54.885Z,12.10
2017-12-08T13:03:23.252Z,5.78
2017-12-08T13:05:51.663Z,9.80
2017-12-08T13:08:19.995Z,10.10
2017-12-08T13:10:48.380Z,9.02
2017-12-08T13:13:16.688Z,8.10
2017-12-08T13:15:45.059Z,12.70
2017-12-08T13:18:13.396Z,6.87
2017-12-08T13:20:41.745Z,8.05
2017-12-08T13:23:10.100Z,9.75
2017-12-08T13:25:38.426Z,6.60
2017-12-08T13:28:06.800Z,6.90
2017-12-08T13:30:35.138Z,6.10
2017-12-08T13:33:03.501Z,6.28
2017-12-08T13:35:31.847Z,9.25
2017-12-08T13:38:00.221Z,9.80
2017-12-08T13:40:28.711Z,7.72
2017-12-08T13:42:57.068Z,5.60
2017-12-08T13:45:25.411Z,5.18
2017-12-08T13:47:53.763Z,5.45
2017-12-08T13:50:22.842Z,28.45
2017-12-08T13:52:51.406Z,8.80
2017-12-08T13:55:31.470Z,7.12
2017-12-08T13:57:59.863Z,4.10
2017-12-08T14:00:28.190Z,5.50
2017-12-08T14:02:56.550Z,6.32
2017-12-08T14:05:24.883Z,6.10
2017-12-08T14:07:53.267Z,5.03
2017-12-08T14:10:21.639Z,4.05
2017-12-08T14:12:49.969Z,6.45
2017-12-08T14:15:18.323Z,4.07
2017-12-08T14:17:46.670Z,2.42
2017-12-08T14:20:15.014Z,5.00
2017-12-08T14:22:43.402Z,3.20
2017-12-08T14:25:11.758Z,3.10
2017-12-08T14:27:40.109Z,3.08
2017-12-08T14:30:08.453Z,10.02
2017-12-08T14:32:36.794Z,8.00
2017-12-08T14:35:05.160Z,4.82
2017-12-08T14:37:33.507Z,6.87
2017-12-08T14:40:01.871Z,4.97
2017-12-08T14:42:30.226Z,5.47
2017-12-08T14:44:58.558Z,4.65
2017-12-08T14:47:26.881Z,2.30
2017-12-08T14:49:55.230Z,2.17
2017-12-08T14:52:23.612Z,3.00
2017-12-08T14:54:51.951Z,2.42
2017-12-08T14:57:20.269Z,3.60
2017-12-08T14:59:48.617Z,8.48
2017-12-08T15:02:16.950Z,7.05
2017-12-08T15:04:45.335Z,5.70
2017-12-08T15:07:13.761Z,14.68
2017-12-08T15:09:42.114Z,8.20
2017-12-08T15:12:10.482Z,9.45
2017-12-08T15:14:38.829Z,7.10
2017-12-08T15:17:07.231Z,6.72
2017-12-08T15:19:35.593Z,10.93
2017-12-08T15:22:03.930Z,10.90
2017-12-08T15:24:32.267Z,6.28
2017-12-08T15:27:00.609Z,10.10
2017-12-08T15:29:28.976Z,8.07
2017-12-08T15:31:57.343Z,4.15
2017-12-08T15:34:25.682Z,7.22
2017-12-08T15:36:54.027Z,7.35
2017-12-08T15:39:22.391Z,4.18
2017-12-08T15:41:50.766Z,9.27
2017-12-08T15:44:19.111Z,5.93
2017-12-08T15:46:47.475Z,11.18
2017-12-08T15:49:15.818Z,6.87
2017-12-08T15:51:44.198Z,6.65
2017-12-08T15:54:12.537Z,5.65
2017-12-08T15:56:40.884Z,6.65
2017-12-08T15:59:09.235Z,7.57
2017-12-08T16:01:37.585Z,5.40
2017-12-08T16:04:06.069Z,4.20
2017-12-08T16:06:34.574Z,6.10
2017-12-08T16:09:02.907Z,6.82
2017-12-08T16:11:31.302Z,10.45
2017-12-08T16:13:59.611Z,7.87
2017-12-08T16:16:28.143Z,12.00
2017-12-08T16:18:56.498Z,10.60
2017-12-08T16:21:24.900Z,12.55
2017-12-08T16:23:53.270Z,7.20
2017-12-08T16:26:21.622Z,8.35
2017-12-08T16:28:50.015Z,5.30
2017-12-08T16:31:18.371Z,12.98
2017-12-08T16:33:46.762Z,3.80
2017-12-08T16:36:15.094Z,10.13
2017-12-08T16:38:43.432Z,12.05
2017-12-08T16:41:11.802Z,7.35
2017-12-08T16:43:40.146Z,6.90
2017-12-08T16:46:08.543Z,4.87
2017-12-08T16:48:36.905Z,4.78
2017-12-08T16:51:05.244Z,5.95
2017-12-08T16:53:33.630Z,9.32
2017-12-08T16:56:01.982Z,5.47
2017-12-08T16:58:30.453Z,5.90
2017-12-08T17:00:58.799Z,5.45
2017-12-08T17:03:27.127Z,4.53
2017-12-08T17:05:55.488Z,3.60
2017-12-08T17:08:23.819Z,3.78
2017-12-08T17:10:52.211Z,4.22
2017-12-08T17:13:20.549Z,8.00
2017-12-08T17:15:49.868Z,14.63
2017-12-08T17:18:18.214Z,10.70
2017-12-08T17:20:46.560Z,5.07
2017-12-08T17:23:14.926Z,7.18
2017-12-08T17:25:43.264Z,9.63
2017-12-08T17:28:11.600Z,10.02
2017-12-08T17:30:39.937Z,6.55
2017-12-08T17:33:08.261Z,15.90
2017-12-08T17:35:36.674Z,7.50
2017-12-08T17:38:04.993Z,12.95
2017-12-08T17:40:33.326Z,9.60
2017-12-08T17:43:01.776Z,7.32
2017-12-08T17:45:30.370Z,8.85
2017-12-08T17:47:58.858Z,11.48
2017-12-08T17:50:27.330Z,9.43
2017-12-08T17:52:55.848Z,8.15
2017-12-08T17:55:24.337Z,10.65
2017-12-08T17:57:52.992Z,8.02
2017-12-08T18:00:21.440Z,7.50
2017-12-08T18:02:49.844Z,22.05
2017-12-08T18:05:18.187Z,13.48
2017-12-08T18:07:49.639Z,10.07
2017-12-08T18:10:22.203Z,8.20
2017-12-08T18:12:54.112Z,11.23
2017-12-08T18:15:26.141Z,12.37
2017-12-08T18:17:56.333Z,16.48
2017-12-08T18:20:27.664Z,12.27
2017-12-08T18:22:57.427Z,14.32
2017-12-08T18:25:31.750Z,14.95
2017-12-08T18:28:04.527Z,33.35
2017-12-08T18:30:33.417Z,29.67
2017-12-08T18:33:02.273Z,19.25
2017-12-08T18:35:31.550Z,17.67
2017-12-08T18:38:00.279Z,12.80
2017-12-08T18:40:29.022Z,18.50
2017-12-08T18:42:57.531Z,12.15
2017-12-08T18:45:25.958Z,12.93
2017-12-08T18:47:55.134Z,8.63
2017-12-08T18:50:26.558Z,18.10
2017-12-08T18:52:55.167Z,14.00
2017-12-08T18:55:23.514Z,13.27
2017-12-08T18:57:51.850Z,17.17
2017-12-08T19:00:20.216Z,17.67
2017-12-08T19:02:48.574Z,17.77
2017-12-08T19:05:17.043Z,14.63
2017-12-08T19:07:45.391Z,15.43
2017-12-08T19:10:13.750Z,14.80
2017-12-08T19:12:42.086Z,17.67
2017-12-08T19:15:10.462Z,22.62
2017-12-08T19:17:39.056Z,21.35
2017-12-08T19:20:07.414Z,38.88
2017-12-08T19:22:35.767Z,54.22
2017-12-08T19:25:04.106Z,16.67
2017-12-08T19:27:32.480Z,12.93
2017-12-08T19:30:00.844Z,13.60
2017-12-08T19:32:29.176Z,21.65
2017-12-08T19:34:57.522Z,20.20
2017-12-08T19:37:25.858Z,16.83
2017-12-08T19:39:54.206Z,11.80
2017-12-08T19:42:22.735Z,13.85
2017-12-08T19:44:51.116Z,16.30
2017-12-08T19:47:20.365Z,18.27
2017-12-08T19:49:48.713Z,18.42
2017-12-08T19:52:17.062Z,12.27
2017-12-08T19:54:45.478Z,15.20
2017-12-08T19:57:13.912Z,26.48
2017-12-08T19:59:42.313Z,13.40
2017-12-08T20:02:10.649Z,11.60
2017-12-08T20:04:38.988Z,14.68
2017-12-08T20:07:07.322Z,10.38
2017-12-08T20:09:35.674Z,16.55
2017-12-08T20:12:04.041Z,12.57
2017-12-08T20:14:32.399Z,13.57
2017-12-08T20:17:00.740Z,13.35
2017-12-08T20:19:34.014Z,18.48
2017-12-08T20:22:02.354Z,19.30
2017-12-08T20:24:30.724Z,16.98
2017-12-08T20:26:59.075Z,22.75
2017-12-08T20:29:27.426Z,19.05
2017-12-08T20:31:55.794Z,15.55
2017-12-08T20:34:24.130Z,28.80
2017-12-08T20:36:52.512Z,13.27
2017-12-08T20:39:20.856Z,14.45
2017-12-08T20:41:49.218Z,17.77
2017-12-08T20:44:17.570Z,15.55
2017-12-08T20:46:45.915Z,22.15
2017-12-08T20:49:14.420Z,29.48
2017-12-08T20:51:42.762Z,13.95
2017-12-08T20:54:11.107Z,19.42
2017-12-08T20:56:39.458Z,18.33
2017-12-08T20:59:07.798Z,12.15
2017-12-08T21:01:36.162Z,16.95
2017-12-08T21:04:04.498Z,21.83
2017-12-08T21:06:32.838Z,18.77
2017-12-08T21:09:01.183Z,19.33
2017-12-08T21:11:29.540Z,14.05
2017-12-08T21:13:57.922Z,18.95
2017-12-08T21:16:26.275Z,18.25
2017-12-08T21:18:54.620Z,13.20
2017-12-08T21:21:22.954Z,21.50
2017-12-08T21:23:51.315Z,26.25
2017-12-08T21:26:19.684Z,25.77
2017-12-08T21:28:48.031Z,18.05
2017-12-08T21:31:16.380Z,17.67
2017-12-08T21:33:44.736Z,19.15
2017-12-08T21:36:13.069Z,22.87
2017-12-08T21:38:41.451Z,24.15
2017-12-08T21:41:09.802Z,31.33
2017-12-08T21:43:38.157Z,22.77
2017-12-08T21:46:06.542Z,16.02
2017-12-08T21:48:34.883Z,16.27
2017-12-08T21:51:03.251Z,12.88
2017-12-08T21:53:31.604Z,15.63
2017-12-08T21:55:59.967Z,16.08
2017-12-08T21:58:28.315Z,24.90
2017-12-08T22:00:56.710Z,22.80
2017-12-08T22:03:25.057Z,17.65
2017-12-08T22:05:53.403Z,26.08
2017-12-08T22:08:21.918Z,16.75
2017-12-08T22:10:50.290Z,23.10
2017-12-08T22:13:18.633Z,9.32
2017-12-08T22:15:46.967Z,15.13
2017-12-08T22:18:15.322Z,21.40
2017-12-08T22:20:43.711Z,14.80
2017-12-08T22:23:12.061Z,16.00
2017-12-08T22:25:40.402Z,14.15
2017-12-08T22:28:08.750Z,12.02
2017-12-08T22:30:37.098Z,23.98
2017-12-08T22:33:05.495Z,25.62
2017-12-08T22:35:33.830Z,13.80
2017-12-08T22:38:02.166Z,13.02
2017-12-08T22:40:30.542Z,7.75
2017-12-08T22:42:58.883Z,7.12
2017-12-08T22:45:27.261Z,8.00
2017-12-08T22:47:55.622Z,8.30
2017-12-08T22:50:23.972Z,6.22
2017-12-08T22:52:52.302Z,5.20
2017-12-08T22:55:20.630Z,4.30
2017-12-08T22:57:49.012Z,12.80
2017-12-08T23:00:32.014Z,11.10
2017-12-08T23:03:00.383Z,4.85
2017-12-08T23:05:28.730Z,8.88
2017-12-08T23:07:57.071Z,4.43
2017-12-08T23:10:25.435Z,10.98
2017-12-08T23:12:53.766Z,4.72
2017-12-08T23:15:22.122Z,6.93
2017-12-08T23:17:50.471Z,14.90
2017-12-08T23:20:18.805Z,3.72
2017-12-08T23:22:47.145Z,4.03
2017-12-08T23:25:15.470Z,2.90
2017-12-08T23:27:43.852Z,4.12
2017-12-08T23:30:12.187Z,3.15
2017-12-08T23:32:40.526Z,2.47
2017-12-08T23:35:08.889Z,11.90
2017-12-08T23:37:37.227Z,11.57
2017-12-08T23:40:05.613Z,8.55
2017-12-08T23:42:33.943Z,6.80
2017-12-08T23:45:02.283Z,5.18
2017-12-08T23:47:30.618Z,3.97
2017-12-08T23:49:58.984Z,5.05
2017-12-08T23:52:27.318Z,6.32
2017-12-08T23:54:55.824Z,6.00
2017-12-08T23:57:24.150Z,7.20
2017-12-08T23:59:52.496Z,9.00
